sensor_id;sensor_type;location;lat;lon;timestamp;temperature;humidity
39099;DHT22;24844;52.380;7.018;2024-03-08T00:00:19;3.50;99.90
39099;DHT22;24844;52.380;7.018;2024-03-08T00:02:45;3.40;99.90
39099;DHT22;24844;52.380;7.018;2024-03-08T00:05:12;3.50;99.90
39099;DHT22;24844;52.380;7.018;2024-03-08T00:07:38;3.40;99.90
39099;DHT22;24844;52.380;7.018;2024-03-08T00:10:06;3.30;99.90
39099;DHT22;24844;52.380;7.018;2024-03-08T00:12:32;3.10;99.90
39099;DHT22;24844;52.380;7.018;2024-03-08T00:14:58;3.10;99.90
39099;DHT22;24844;52.380;7.018;2024-03-08T00:17:24;3.20;99.90
39099;DHT22;24844;52.380;7.018;2024-03-08T00:19:50;3.30;99.90
39099;DHT22;24844;52.380;7.018;2024-03-08T00:22:16;3.20;99.90
39099;DHT22;24844;52.380;7.018;2024-03-08T00:24:42;3.10;99.90
39099;DHT22;24844;52.380;7.018;2024-03-08T00:27:09;3.20;99.90
39099;DHT22;24844;52.380;7.018;2024-03-08T00:29:35;3.10;99.90
39099;DHT22;24844;52.380;7.018;2024-03-08T00:32:01;3.10;99.90
39099;DHT22;24844;52.380;7.018;2024-03-08T00:34:26;3.20;99.90
39099;DHT22;24844;52.380;7.018;2024-03-08T00:36:52;3.10;99.90
39099;DHT22;24844;52.380;7.018;2024-03-08T00:39:18;3.00;99.90
39099;DHT22;24844;52.380;7.018;2024-03-08T00:41:46;3.00;99.90
39099;DHT22;24844;52.380;7.018;2024-03-08T00:44:12;2.90;99.90
39099;DHT22;24844;52.380;7.018;2024-03-08T00:46:37;3.00;99.90
39099;DHT22;24844;52.380;7.018;2024-03-08T00:49:03;3.00;99.90
39099;DHT22;24844;52.380;7.018;2024-03-08T00:51:29;2.80;99.90
39099;DHT22;24844;52.380;7.018;2024-03-08T00:53:54;2.90;99.90
39099;DHT22;24844;52.380;7.018;2024-03-08T00:56:20;2.70;99.90
39099;DHT22;24844;52.380;7.018;2024-03-08T00:58:46;2.80;99.90
39099;DHT22;24844;52.380;7.018;2024-03-08T01:01:13;2.90;99.90
39099;DHT22;24844;52.380;7.018;2024-03-08T01:03:42;3.00;99.90
39099;DHT22;24844;52.380;7.018;2024-03-08T01:06:08;3.00;99.90
39099;DHT22;24844;52.380;7.018;2024-03-08T01:08:34;2.90;99.90
39099;DHT22;24844;52.380;7.018;2024-03-08T01:11:00;3.00;99.90
39099;DHT22;24844;52.380;7.018;2024-03-08T01:13:25;2.80;99.90
39099;DHT22;24844;52.380;7.018;2024-03-08T01:15:51;2.70;99.90
39099;DHT22;24844;52.380;7.018;2024-03-08T01:18:17;2.60;99.90
39099;DHT22;24844;52.380;7.018;2024-03-08T01:20:42;2.70;99.90
39099;DHT22;24844;52.380;7.018;2024-03-08T01:23:08;2.80;99.90
39099;DHT22;24844;52.380;7.018;2024-03-08T01:25:34;2.70;99.90
39099;DHT22;24844;52.380;7.018;2024-03-08T01:27:59;2.80;99.90
39099;DHT22;24844;52.380;7.018;2024-03-08T01:30:25;3.00;99.90
39099;DHT22;24844;52.380;7.018;2024-03-08T01:32:50;2.70;99.90
39099;DHT22;24844;52.380;7.018;2024-03-08T01:35:16;2.70;99.90
39099;DHT22;24844;52.380;7.018;2024-03-08T01:37:41;2.80;99.90
39099;DHT22;24844;52.380;7.018;2024-03-08T01:40:07;2.90;99.90
39099;DHT22;24844;52.380;7.018;2024-03-08T01:42:34;2.70;99.90
39099;DHT22;24844;52.380;7.018;2024-03-08T01:45:06;3.00;99.90
39099;DHT22;24844;52.380;7.018;2024-03-08T01:47:32;2.70;99.90
39099;DHT22;24844;52.380;7.018;2024-03-08T01:49:59;2.70;99.90
39099;DHT22;24844;52.380;7.018;2024-03-08T01:52:28;2.60;99.90
39099;DHT22;24844;52.380;7.018;2024-03-08T01:54:54;2.60;99.90
39099;DHT22;24844;52.380;7.018;2024-03-08T01:57:20;2.60;99.90
39099;DHT22;24844;52.380;7.018;2024-03-08T01:59:46;2.70;99.90
39099;DHT22;24844;52.380;7.018;2024-03-08T02:02:14;2.60;99.90
39099;DHT22;24844;52.380;7.018;2024-03-08T02:04:40;2.80;99.90
39099;DHT22;24844;52.380;7.018;2024-03-08T02:07:06;2.50;99.90
39099;DHT22;24844;52.380;7.018;2024-03-08T02:09:31;2.60;99.90
39099;DHT22;24844;52.380;7.018;2024-03-08T02:11:57;2.50;99.90
39099;DHT22;24844;52.380;7.018;2024-03-08T02:14:23;2.30;99.90
39099;DHT22;24844;52.380;7.018;2024-03-08T02:16:49;2.50;99.90
39099;DHT22;24844;52.380;7.018;2024-03-08T02:19:16;2.40;99.90
39099;DHT22;24844;52.380;7.018;2024-03-08T02:21:42;2.60;99.90
39099;DHT22;24844;52.380;7.018;2024-03-08T02:24:08;2.60;99.90
39099;DHT22;24844;52.380;7.018;2024-03-08T02:26:34;2.60;99.90
39099;DHT22;24844;52.380;7.018;2024-03-08T02:29:00;2.50;99.90
39099;DHT22;24844;52.380;7.018;2024-03-08T02:31:25;2.50;99.90
39099;DHT22;24844;52.380;7.018;2024-03-08T02:33:51;2.50;99.90
39099;DHT22;24844;52.380;7.018;2024-03-08T02:36:16;2.60;99.90
39099;DHT22;24844;52.380;7.018;2024-03-08T02:38:42;2.50;99.90
39099;DHT22;24844;52.380;7.018;2024-03-08T02:41:08;2.30;99.90
39099;DHT22;24844;52.380;7.018;2024-03-08T02:43:34;2.20;99.90
39099;DHT22;24844;52.380;7.018;2024-03-08T02:45:59;2.40;99.90
39099;DHT22;24844;52.380;7.018;2024-03-08T02:48:25;2.50;99.90
39099;DHT22;24844;52.380;7.018;2024-03-08T02:50:51;2.70;99.90
39099;DHT22;24844;52.380;7.018;2024-03-08T02:53:17;2.70;99.90
39099;DHT22;24844;52.380;7.018;2024-03-08T02:55:44;2.60;99.90
39099;DHT22;24844;52.380;7.018;2024-03-08T02:58:10;2.70;99.90
39099;DHT22;24844;52.380;7.018;2024-03-08T03:00:36;2.60;99.90
39099;DHT22;24844;52.380;7.018;2024-03-08T03:03:01;2.50;99.90
39099;DHT22;24844;52.380;7.018;2024-03-08T03:05:28;2.50;99.90
39099;DHT22;24844;52.380;7.018;2024-03-08T03:07:55;2.70;99.90
39099;DHT22;24844;52.380;7.018;2024-03-08T03:10:21;2.80;99.90
39099;DHT22;24844;52.380;7.018;2024-03-08T03:12:47;2.60;99.90
39099;DHT22;24844;52.380;7.018;2024-03-08T03:15:14;2.50;99.90
39099;DHT22;24844;52.380;7.018;2024-03-08T03:17:40;2.20;99.90
39099;DHT22;24844;52.380;7.018;2024-03-08T03:20:07;2.30;99.90
39099;DHT22;24844;52.380;7.018;2024-03-08T03:22:38;2.50;99.90
39099;DHT22;24844;52.380;7.018;2024-03-08T03:25:04;2.30;99.90
39099;DHT22;24844;52.380;7.018;2024-03-08T03:27:30;2.30;99.90
39099;DHT22;24844;52.380;7.018;2024-03-08T03:29:56;2.20;99.90
39099;DHT22;24844;52.380;7.018;2024-03-08T03:32:23;2.30;99.90
39099;DHT22;24844;52.380;7.018;2024-03-08T03:34:49;2.30;99.90
39099;DHT22;24844;52.380;7.018;2024-03-08T03:37:21;2.20;99.90
39099;DHT22;24844;52.380;7.018;2024-03-08T03:39:46;2.30;99.90
39099;DHT22;24844;52.380;7.018;2024-03-08T03:42:17;2.10;99.90
39099;DHT22;24844;52.380;7.018;2024-03-08T03:44:47;2.00;99.90
39099;DHT22;24844;52.380;7.018;2024-03-08T03:47:13;1.90;99.90
39099;DHT22;24844;52.380;7.018;2024-03-08T03:49:40;1.90;99.90
39099;DHT22;24844;52.380;7.018;2024-03-08T03:52:06;1.90;99.90
39099;DHT22;24844;52.380;7.018;2024-03-08T03:54:31;1.80;99.90
39099;DHT22;24844;52.380;7.018;2024-03-08T03:56:58;1.90;99.90
39099;DHT22;24844;52.380;7.018;2024-03-08T03:59:24;2.10;99.90
39099;DHT22;24844;52.380;7.018;2024-03-08T04:01:49;2.20;99.90
39099;DHT22;24844;52.380;7.018;2024-03-08T04:04:15;2.30;99.90
39099;DHT22;24844;52.380;7.018;2024-03-08T04:06:41;2.60;99.90
39099;DHT22;24844;52.380;7.018;2024-03-08T04:09:07;2.60;99.90
39099;DHT22;24844;52.380;7.018;2024-03-08T04:11:33;2.60;99.90
39099;DHT22;24844;52.380;7.018;2024-03-08T04:13:58;2.50;99.90
39099;DHT22;24844;52.380;7.018;2024-03-08T04:16:24;2.40;99.90
39099;DHT22;24844;52.380;7.018;2024-03-08T04:18:51;2.30;99.90
39099;DHT22;24844;52.380;7.018;2024-03-08T04:21:17;2.40;99.90
39099;DHT22;24844;52.380;7.018;2024-03-08T04:23:44;2.40;99.90
39099;DHT22;24844;52.380;7.018;2024-03-08T04:26:10;2.50;99.90
39099;DHT22;24844;52.380;7.018;2024-03-08T04:28:36;2.70;99.90
39099;DHT22;24844;52.380;7.018;2024-03-08T04:31:05;2.70;99.90
39099;DHT22;24844;52.380;7.018;2024-03-08T04:33:32;2.60;99.90
39099;DHT22;24844;52.380;7.018;2024-03-08T04:35:58;2.70;99.90
39099;DHT22;24844;52.380;7.018;2024-03-08T04:38:23;2.50;99.90
39099;DHT22;24844;52.380;7.018;2024-03-08T04:40:50;2.60;99.90
39099;DHT22;24844;52.380;7.018;2024-03-08T04:43:15;2.40;99.90
39099;DHT22;24844;52.380;7.018;2024-03-08T04:45:44;2.30;99.90
39099;DHT22;24844;52.380;7.018;2024-03-08T04:48:09;2.20;99.90
39099;DHT22;24844;52.380;7.018;2024-03-08T04:50:35;2.20;99.90
39099;DHT22;24844;52.380;7.018;2024-03-08T04:53:01;2.20;99.90
39099;DHT22;24844;52.380;7.018;2024-03-08T04:55:26;2.30;99.90
39099;DHT22;24844;52.380;7.018;2024-03-08T04:57:52;2.50;99.90
39099;DHT22;24844;52.380;7.018;2024-03-08T05:00:18;2.60;99.90
39099;DHT22;24844;52.380;7.018;2024-03-08T05:02:44;2.40;99.90
39099;DHT22;24844;52.380;7.018;2024-03-08T05:05:10;2.50;99.90
39099;DHT22;24844;52.380;7.018;2024-03-08T05:07:38;2.50;99.90
39099;DHT22;24844;52.380;7.018;2024-03-08T05:10:05;2.50;99.90
39099;DHT22;24844;52.380;7.018;2024-03-08T05:12:32;2.50;99.90
39099;DHT22;24844;52.380;7.018;2024-03-08T05:14:58;2.40;99.90
39099;DHT22;24844;52.380;7.018;2024-03-08T05:17:24;2.40;99.90
39099;DHT22;24844;52.380;7.018;2024-03-08T05:19:50;2.50;99.90
39099;DHT22;24844;52.380;7.018;2024-03-08T05:22:16;2.40;99.90
39099;DHT22;24844;52.380;7.018;2024-03-08T05:24:42;2.30;99.90
39099;DHT22;24844;52.380;7.018;2024-03-08T05:27:08;2.40;99.90
39099;DHT22;24844;52.380;7.018;2024-03-08T05:29:33;2.40;99.90
39099;DHT22;24844;52.380;7.018;2024-03-08T05:31:59;2.40;99.90
39099;DHT22;24844;52.380;7.018;2024-03-08T05:34:25;2.30;99.90
39099;DHT22;24844;52.380;7.018;2024-03-08T05:36:51;2.40;99.90
39099;DHT22;24844;52.380;7.018;2024-03-08T05:39:17;2.30;99.90
39099;DHT22;24844;52.380;7.018;2024-03-08T05:41:44;2.30;99.90
39099;DHT22;24844;52.380;7.018;2024-03-08T05:44:10;2.40;99.90
39099;DHT22;24844;52.380;7.018;2024-03-08T05:46:36;2.40;99.90
39099;DHT22;24844;52.380;7.018;2024-03-08T05:49:06;2.50;99.90
39099;DHT22;24844;52.380;7.018;2024-03-08T05:51:32;2.50;99.90
39099;DHT22;24844;52.380;7.018;2024-03-08T05:54:03;2.40;99.90
39099;DHT22;24844;52.380;7.018;2024-03-08T05:56:31;2.30;99.90
39099;DHT22;24844;52.380;7.018;2024-03-08T05:58:57;2.30;99.90
39099;DHT22;24844;52.380;7.018;2024-03-08T06:01:24;2.30;99.90
39099;DHT22;24844;52.380;7.018;2024-03-08T06:03:49;2.30;99.90
39099;DHT22;24844;52.380;7.018;2024-03-08T06:06:15;2.40;99.90
39099;DHT22;24844;52.380;7.018;2024-03-08T06:08:41;2.40;99.90
39099;DHT22;24844;52.380;7.018;2024-03-08T06:11:08;2.20;99.90
39099;DHT22;24844;52.380;7.018;2024-03-08T06:13:34;2.40;99.90
39099;DHT22;24844;52.380;7.018;2024-03-08T06:16:01;2.50;99.90
39099;DHT22;24844;52.380;7.018;2024-03-08T06:18:30;2.50;99.90
39099;DHT22;24844;52.380;7.018;2024-03-08T06:20:56;2.40;99.90
39099;DHT22;24844;52.380;7.018;2024-03-08T06:23:22;2.50;99.90
39099;DHT22;24844;52.380;7.018;2024-03-08T06:25:48;2.40;99.90
39099;DHT22;24844;52.380;7.018;2024-03-08T06:28:13;2.40;99.90
39099;DHT22;24844;52.380;7.018;2024-03-08T06:30:40;2.40;99.90
39099;DHT22;24844;52.380;7.018;2024-03-08T06:33:05;2.50;99.90
39099;DHT22;24844;52.380;7.018;2024-03-08T06:35:31;2.30;99.90
39099;DHT22;24844;52.380;7.018;2024-03-08T06:38:05;2.60;99.90
39099;DHT22;24844;52.380;7.018;2024-03-08T06:40:31;2.80;99.90
39099;DHT22;24844;52.380;7.018;2024-03-08T06:42:56;2.60;99.90
39099;DHT22;24844;52.380;7.018;2024-03-08T06:45:22;2.50;99.90
39099;DHT22;24844;52.380;7.018;2024-03-08T06:47:49;2.60;99.90
39099;DHT22;24844;52.380;7.018;2024-03-08T06:50:14;2.40;99.90
39099;DHT22;24844;52.380;7.018;2024-03-08T06:52:41;2.70;99.90
39099;DHT22;24844;52.380;7.018;2024-03-08T06:55:08;2.80;99.90
39099;DHT22;24844;52.380;7.018;2024-03-08T06:57:41;2.80;99.90
39099;DHT22;24844;52.380;7.018;2024-03-08T07:00:08;2.30;99.90
39099;DHT22;24844;52.380;7.018;2024-03-08T07:02:40;2.40;99.90
39099;DHT22;24844;52.380;7.018;2024-03-08T07:05:07;2.50;99.90
39099;DHT22;24844;52.380;7.018;2024-03-08T07:07:35;2.50;99.90
39099;DHT22;24844;52.380;7.018;2024-03-08T07:10:03;2.60;99.90
39099;DHT22;24844;52.380;7.018;2024-03-08T07:12:30;2.90;99.90
39099;DHT22;24844;52.380;7.018;2024-03-08T07:14:55;2.70;99.90
39099;DHT22;24844;52.380;7.018;2024-03-08T07:17:21;2.70;99.90
39099;DHT22;24844;52.380;7.018;2024-03-08T07:19:46;2.70;99.90
39099;DHT22;24844;52.380;7.018;2024-03-08T07:22:12;2.50;99.90
39099;DHT22;24844;52.380;7.018;2024-03-08T07:24:37;2.30;99.90
39099;DHT22;24844;52.380;7.018;2024-03-08T07:27:41;2.50;99.90
39099;DHT22;24844;52.380;7.018;2024-03-08T07:30:07;2.50;99.90
39099;DHT22;24844;52.380;7.018;2024-03-08T07:32:35;2.70;99.90
39099;DHT22;24844;52.380;7.018;2024-03-08T07:35:01;2.80;99.90
39099;DHT22;24844;52.380;7.018;2024-03-08T07:37:27;2.80;99.90
39099;DHT22;24844;52.380;7.018;2024-03-08T07:39:53;3.00;99.90
39099;DHT22;24844;52.380;7.018;2024-03-08T07:42:18;3.50;99.90
39099;DHT22;24844;52.380;7.018;2024-03-08T07:44:44;3.30;99.90
39099;DHT22;24844;52.380;7.018;2024-03-08T07:47:11;3.70;99.90
39099;DHT22;24844;52.380;7.018;2024-03-08T07:49:37;3.70;99.90
39099;DHT22;24844;52.380;7.018;2024-03-08T07:52:03;3.70;99.90
39099;DHT22;24844;52.380;7.018;2024-03-08T07:54:30;3.80;99.90
39099;DHT22;24844;52.380;7.018;2024-03-08T07:56:56;4.00;99.90
39099;DHT22;24844;52.380;7.018;2024-03-08T07:59:21;4.00;99.90
39099;DHT22;24844;52.380;7.018;2024-03-08T08:01:47;4.10;99.90
39099;DHT22;24844;52.380;7.018;2024-03-08T08:04:13;3.80;99.90
39099;DHT22;24844;52.380;7.018;2024-03-08T08:06:41;3.60;99.90
39099;DHT22;24844;52.380;7.018;2024-03-08T08:09:07;4.00;99.90
39099;DHT22;24844;52.380;7.018;2024-03-08T08:11:43;4.20;99.90
39099;DHT22;24844;52.380;7.018;2024-03-08T08:14:09;3.80;99.90
39099;DHT22;24844;52.380;7.018;2024-03-08T08:16:38;4.10;99.90
39099;DHT22;24844;52.380;7.018;2024-03-08T08:19:06;4.00;99.90
39099;DHT22;24844;52.380;7.018;2024-03-08T08:21:36;4.40;99.90
39099;DHT22;24844;52.380;7.018;2024-03-08T08:24:05;4.20;99.90
39099;DHT22;24844;52.380;7.018;2024-03-08T08:26:31;4.70;99.90
39099;DHT22;24844;52.380;7.018;2024-03-08T08:28:58;5.10;99.90
39099;DHT22;24844;52.380;7.018;2024-03-08T08:31:25;6.00;99.90
39099;DHT22;24844;52.380;7.018;2024-03-08T08:33:50;6.80;99.90
39099;DHT22;24844;52.380;7.018;2024-03-08T08:36:17;7.30;99.90
39099;DHT22;24844;52.380;7.018;2024-03-08T08:38:43;8.00;99.90
39099;DHT22;24844;52.380;7.018;2024-03-08T08:41:10;8.40;99.90
39099;DHT22;24844;52.380;7.018;2024-03-08T08:43:36;8.80;99.90
39099;DHT22;24844;52.380;7.018;2024-03-08T08:46:02;9.20;99.90
39099;DHT22;24844;52.380;7.018;2024-03-08T08:48:27;9.10;99.90
39099;DHT22;24844;52.380;7.018;2024-03-08T08:50:56;10.00;99.90
39099;DHT22;24844;52.380;7.018;2024-03-08T08:53:21;10.40;99.90
39099;DHT22;24844;52.380;7.018;2024-03-08T08:55:47;10.30;99.90
39099;DHT22;24844;52.380;7.018;2024-03-08T08:58:13;9.50;99.90
39099;DHT22;24844;52.380;7.018;2024-03-08T09:00:39;10.10;99.90
39099;DHT22;24844;52.380;7.018;2024-03-08T09:03:05;10.10;99.90
39099;DHT22;24844;52.380;7.018;2024-03-08T09:05:32;9.90;99.90
39099;DHT22;24844;52.380;7.018;2024-03-08T09:07:59;10.40;99.90
39099;DHT22;24844;52.380;7.018;2024-03-08T09:10:25;9.50;99.90
39099;DHT22;24844;52.380;7.018;2024-03-08T09:12:51;9.50;99.90
39099;DHT22;24844;52.380;7.018;2024-03-08T09:15:16;9.70;99.90
39099;DHT22;24844;52.380;7.018;2024-03-08T09:17:43;10.40;99.90
39099;DHT22;24844;52.380;7.018;2024-03-08T09:20:10;11.00;99.90
39099;DHT22;24844;52.380;7.018;2024-03-08T09:22:39;10.00;99.90
39099;DHT22;24844;52.380;7.018;2024-03-08T09:25:06;10.00;99.90
39099;DHT22;24844;52.380;7.018;2024-03-08T09:27:32;9.10;99.90
39099;DHT22;24844;52.380;7.018;2024-03-08T09:29:59;9.30;99.90
39099;DHT22;24844;52.380;7.018;2024-03-08T09:32:25;9.50;99.90
39099;DHT22;24844;52.380;7.018;2024-03-08T09:34:51;10.70;99.90
39099;DHT22;24844;52.380;7.018;2024-03-08T09:37:17;10.20;99.90
39099;DHT22;24844;52.380;7.018;2024-03-08T09:39:44;11.50;99.90
39099;DHT22;24844;52.380;7.018;2024-03-08T09:42:10;11.90;99.90
39099;DHT22;24844;52.380;7.018;2024-03-08T09:44:36;11.00;99.90
39099;DHT22;24844;52.380;7.018;2024-03-08T09:47:02;11.00;99.90
39099;DHT22;24844;52.380;7.018;2024-03-08T09:49:29;11.50;99.90
39099;DHT22;24844;52.380;7.018;2024-03-08T09:51:55;12.40;99.90
39099;DHT22;24844;52.380;7.018;2024-03-08T09:54:21;11.80;99.90
39099;DHT22;24844;52.380;7.018;2024-03-08T09:56:48;11.40;99.90
39099;DHT22;24844;52.380;7.018;2024-03-08T09:59:15;11.60;99.90
39099;DHT22;24844;52.380;7.018;2024-03-08T10:01:59;11.40;99.90
39099;DHT22;24844;52.380;7.018;2024-03-08T10:04:25;11.50;99.90
39099;DHT22;24844;52.380;7.018;2024-03-08T10:07:00;11.20;99.90
39099;DHT22;24844;52.380;7.018;2024-03-08T10:09:26;10.70;99.90
39099;DHT22;24844;52.380;7.018;2024-03-08T10:11:56;10.30;99.90
39099;DHT22;24844;52.380;7.018;2024-03-08T10:14:23;9.60;99.90
39099;DHT22;24844;52.380;7.018;2024-03-08T10:16:49;9.80;99.90
39099;DHT22;24844;52.380;7.018;2024-03-08T10:19:15;10.10;99.90
39099;DHT22;24844;52.380;7.018;2024-03-08T10:21:52;10.80;99.90
39099;DHT22;24844;52.380;7.018;2024-03-08T10:24:19;11.00;99.90
39099;DHT22;24844;52.380;7.018;2024-03-08T10:26:45;10.30;99.90
39099;DHT22;24844;52.380;7.018;2024-03-08T10:29:11;10.70;99.90
39099;DHT22;24844;52.380;7.018;2024-03-08T10:31:43;10.50;99.90
39099;DHT22;24844;52.380;7.018;2024-03-08T10:34:09;10.40;99.90
39099;DHT22;24844;52.380;7.018;2024-03-08T10:36:36;10.60;99.90
39099;DHT22;24844;52.380;7.018;2024-03-08T10:39:19;10.90;99.90
39099;DHT22;24844;52.380;7.018;2024-03-08T10:41:57;11.00;99.90
39099;DHT22;24844;52.380;7.018;2024-03-08T10:52:32;11.00;99.90
39099;DHT22;24844;52.380;7.018;2024-03-08T10:54:59;12.40;99.90
39099;DHT22;24844;52.380;7.018;2024-03-08T10:57:24;13.20;99.90
39099;DHT22;24844;52.380;7.018;2024-03-08T10:59:51;13.60;99.90
39099;DHT22;24844;52.380;7.018;2024-03-08T11:02:17;14.00;99.90
39099;DHT22;24844;52.380;7.018;2024-03-08T11:04:48;14.60;99.90
39099;DHT22;24844;52.380;7.018;2024-03-08T11:46:57;11.10;99.90
39099;DHT22;24844;52.380;7.018;2024-03-08T11:49:22;10.70;99.90
39099;DHT22;24844;52.380;7.018;2024-03-08T11:51:52;10.80;99.90
39099;DHT22;24844;52.380;7.018;2024-03-08T11:54:18;10.70;99.90
39099;DHT22;24844;52.380;7.018;2024-03-08T11:56:44;10.80;99.90
39099;DHT22;24844;52.380;7.018;2024-03-08T11:59:12;9.90;99.90
39099;DHT22;24844;52.380;7.018;2024-03-08T12:01:39;9.80;99.20
39099;DHT22;24844;52.380;7.018;2024-03-08T12:04:04;9.50;98.70
39099;DHT22;24844;52.380;7.018;2024-03-08T12:06:39;10.20;97.90
39099;DHT22;24844;52.380;7.018;2024-03-08T12:09:08;10.90;96.80
39099;DHT22;24844;52.380;7.018;2024-03-08T12:11:35;10.20;97.70
39099;DHT22;24844;52.380;7.018;2024-03-08T12:14:01;10.10;97.60
39099;DHT22;24844;52.380;7.018;2024-03-08T12:16:27;9.60;97.60
39099;DHT22;24844;52.380;7.018;2024-03-08T12:18:53;10.30;98.10
39099;DHT22;24844;52.380;7.018;2024-03-08T12:21:19;10.10;97.90
39099;DHT22;24844;52.380;7.018;2024-03-08T12:24:09;10.60;97.60
39099;DHT22;24844;52.380;7.018;2024-03-08T12:26:37;10.80;96.90
39099;DHT22;24844;52.380;7.018;2024-03-08T12:29:21;10.80;97.50
39099;DHT22;24844;52.380;7.018;2024-03-08T12:31:51;10.60;97.20
39099;DHT22;24844;52.380;7.018;2024-03-08T12:34:20;10.80;96.40
39099;DHT22;24844;52.380;7.018;2024-03-08T12:36:50;11.00;96.40
39099;DHT22;24844;52.380;7.018;2024-03-08T12:39:20;10.40;97.40
39099;DHT22;24844;52.380;7.018;2024-03-08T12:41:55;10.50;98.20
39099;DHT22;24844;52.380;7.018;2024-03-08T12:44:25;10.30;97.10
39099;DHT22;24844;52.380;7.018;2024-03-08T12:46:51;10.50;97.90
39099;DHT22;24844;52.380;7.018;2024-03-08T12:49:19;10.70;97.10
39099;DHT22;24844;52.380;7.018;2024-03-08T12:51:47;11.00;96.90
39099;DHT22;24844;52.380;7.018;2024-03-08T12:54:13;10.30;98.40
39099;DHT22;24844;52.380;7.018;2024-03-08T12:56:39;10.50;97.90
39099;DHT22;24844;52.380;7.018;2024-03-08T12:59:07;10.40;97.40
39099;DHT22;24844;52.380;7.018;2024-03-08T13:01:35;10.30;97.80
39099;DHT22;24844;52.380;7.018;2024-03-08T13:04:04;10.70;97.10
39099;DHT22;24844;52.380;7.018;2024-03-08T13:06:32;11.00;96.60
39099;DHT22;24844;52.380;7.018;2024-03-08T13:08:58;11.20;96.80
39099;DHT22;24844;52.380;7.018;2024-03-08T13:11:24;11.00;96.90
39099;DHT22;24844;52.380;7.018;2024-03-08T13:13:51;11.40;96.30
39099;DHT22;24844;52.380;7.018;2024-03-08T13:16:16;11.20;96.00
39099;DHT22;24844;52.380;7.018;2024-03-08T13:18:44;11.50;96.00
39099;DHT22;24844;52.380;7.018;2024-03-08T13:21:11;11.50;96.00
39099;DHT22;24844;52.380;7.018;2024-03-08T13:23:41;10.70;96.80
39099;DHT22;24844;52.380;7.018;2024-03-08T13:26:10;10.90;96.60
39099;DHT22;24844;52.380;7.018;2024-03-08T13:28:46;10.70;97.50
39099;DHT22;24844;52.380;7.018;2024-03-08T13:31:12;10.90;97.50
39099;DHT22;24844;52.380;7.018;2024-03-08T13:33:40;11.00;96.10
39099;DHT22;24844;52.380;7.018;2024-03-08T13:36:07;11.10;96.60
39099;DHT22;24844;52.380;7.018;2024-03-08T13:38:41;10.80;96.20
39099;DHT22;24844;52.380;7.018;2024-03-08T13:41:08;10.60;97.40
39099;DHT22;24844;52.380;7.018;2024-03-08T13:43:34;10.70;96.90
39099;DHT22;24844;52.380;7.018;2024-03-08T13:46:02;10.40;96.90
39099;DHT22;24844;52.380;7.018;2024-03-08T13:48:28;10.90;96.90
39099;DHT22;24844;52.380;7.018;2024-03-08T13:50:53;10.80;96.70
39099;DHT22;24844;52.380;7.018;2024-03-08T13:53:20;11.30;96.10
39099;DHT22;24844;52.380;7.018;2024-03-08T13:55:45;10.90;96.20
39099;DHT22;24844;52.380;7.018;2024-03-08T13:58:11;11.20;96.40
39099;DHT22;24844;52.380;7.018;2024-03-08T14:00:39;11.20;96.70
39099;DHT22;24844;52.380;7.018;2024-03-08T14:03:06;11.10;96.40
39099;DHT22;24844;52.380;7.018;2024-03-08T14:05:32;11.20;96.20
39099;DHT22;24844;52.380;7.018;2024-03-08T14:08:02;10.80;96.10
39099;DHT22;24844;52.380;7.018;2024-03-08T14:10:32;11.10;95.80
39099;DHT22;24844;52.380;7.018;2024-03-08T14:12:58;11.40;95.60
39099;DHT22;24844;52.380;7.018;2024-03-08T14:15:23;11.30;95.60
39099;DHT22;24844;52.380;7.018;2024-03-08T14:17:54;10.80;96.00
39099;DHT22;24844;52.380;7.018;2024-03-08T14:20:19;10.50;97.10
39099;DHT22;24844;52.380;7.018;2024-03-08T14:22:48;10.60;97.70
39099;DHT22;24844;52.380;7.018;2024-03-08T14:25:14;11.10;96.50
39099;DHT22;24844;52.380;7.018;2024-03-08T14:27:44;10.90;96.10
39099;DHT22;24844;52.380;7.018;2024-03-08T14:30:10;11.00;96.30
39099;DHT22;24844;52.380;7.018;2024-03-08T14:32:36;10.20;96.90
39099;DHT22;24844;52.380;7.018;2024-03-08T14:35:04;9.90;97.40
39099;DHT22;24844;52.380;7.018;2024-03-08T14:37:30;10.00;97.20
39099;DHT22;24844;52.380;7.018;2024-03-08T14:39:55;10.10;97.60
39099;DHT22;24844;52.380;7.018;2024-03-08T14:42:22;10.30;97.30
39099;DHT22;24844;52.380;7.018;2024-03-08T14:44:48;10.60;96.40
39099;DHT22;24844;52.380;7.018;2024-03-08T14:47:17;10.90;95.90
39099;DHT22;24844;52.380;7.018;2024-03-08T14:49:43;10.60;96.00
39099;DHT22;24844;52.380;7.018;2024-03-08T14:52:08;10.10;97.40
39099;DHT22;24844;52.380;7.018;2024-03-08T14:54:53;10.70;96.30
39099;DHT22;24844;52.380;7.018;2024-03-08T14:57:19;10.70;96.30
39099;DHT22;24844;52.380;7.018;2024-03-08T14:59:44;10.90;96.00
39099;DHT22;24844;52.380;7.018;2024-03-08T15:02:10;10.40;96.70
39099;DHT22;24844;52.380;7.018;2024-03-08T15:04:36;10.30;97.10
39099;DHT22;24844;52.380;7.018;2024-03-08T15:07:02;10.50;97.00
39099;DHT22;24844;52.380;7.018;2024-03-08T15:09:30;10.40;96.70
39099;DHT22;24844;52.380;7.018;2024-03-08T15:12:08;10.00;97.30
39099;DHT22;24844;52.380;7.018;2024-03-08T15:14:38;10.40;96.70
39099;DHT22;24844;52.380;7.018;2024-03-08T15:17:05;10.80;96.00
39099;DHT22;24844;52.380;7.018;2024-03-08T15:19:36;10.40;96.20
39099;DHT22;24844;52.380;7.018;2024-03-08T15:22:02;11.00;95.90
39099;DHT22;24844;52.380;7.018;2024-03-08T15:24:28;10.50;96.20
39099;DHT22;24844;52.380;7.018;2024-03-08T15:26:53;10.30;96.30
39099;DHT22;24844;52.380;7.018;2024-03-08T15:29:20;10.60;96.80
39099;DHT22;24844;52.380;7.018;2024-03-08T15:31:52;10.80;96.30
39099;DHT22;24844;52.380;7.018;2024-03-08T15:34:19;10.40;96.10
39099;DHT22;24844;52.380;7.018;2024-03-08T15:36:52;10.30;96.80
39099;DHT22;24844;52.380;7.018;2024-03-08T15:39:18;10.50;96.40
39099;DHT22;24844;52.380;7.018;2024-03-08T15:41:46;10.50;96.90
39099;DHT22;24844;52.380;7.018;2024-03-08T15:44:12;10.30;96.80
39099;DHT22;24844;52.380;7.018;2024-03-08T15:46:39;10.10;97.40
39099;DHT22;24844;52.380;7.018;2024-03-08T15:49:05;9.80;97.50
39099;DHT22;24844;52.380;7.018;2024-03-08T15:51:32;10.10;97.50
39099;DHT22;24844;52.380;7.018;2024-03-08T15:53:58;10.20;99.90
39099;DHT22;24844;52.380;7.018;2024-03-08T15:56:24;10.40;97.90
39099;DHT22;24844;52.380;7.018;2024-03-08T15:58:51;10.30;98.80
39099;DHT22;24844;52.380;7.018;2024-03-08T16:01:17;10.40;98.40
39099;DHT22;24844;52.380;7.018;2024-03-08T16:03:44;10.60;99.00
39099;DHT22;24844;52.380;7.018;2024-03-08T16:06:16;10.70;97.80
39099;DHT22;24844;52.380;7.018;2024-03-08T16:08:42;10.90;97.80
39099;DHT22;24844;52.380;7.018;2024-03-08T16:11:08;10.90;97.50
39099;DHT22;24844;52.380;7.018;2024-03-08T16:13:36;11.10;98.50
39099;DHT22;24844;52.380;7.018;2024-03-08T16:16:04;10.70;98.30
39099;DHT22;24844;52.380;7.018;2024-03-08T16:18:30;11.10;97.10
39099;DHT22;24844;52.380;7.018;2024-03-08T16:20:57;11.10;96.70
39099;DHT22;24844;52.380;7.018;2024-03-08T16:23:24;10.90;97.10
39099;DHT22;24844;52.380;7.018;2024-03-08T16:25:50;10.90;96.90